createdAt,value
2022-10-11T00:00:54.175Z,11.6
2022-10-11T00:01:54.998Z,11.6
2022-10-11T00:02:57.061Z,11.6
2022-10-11T00:03:58.019Z,11.7
2022-10-11T00:05:00.040Z,11.7
2022-10-11T00:06:02.295Z,11.8
2022-10-11T00:07:04.001Z,11.8
2022-10-11T00:08:06.062Z,11.8
2022-10-11T00:09:07.022Z,11.8
2022-10-11T00:10:08.123Z,11.8
2022-10-11T00:11:10.039Z,11.7
2022-10-11T00:12:12.039Z,11.7
2022-10-11T00:13:14.419Z,11.7
2022-10-11T00:14:16.018Z,11.7
2022-10-11T00:15:18.020Z,11.6
2022-10-11T00:16:19.071Z,11.6
2022-10-11T00:17:19.979Z,11.6
2022-10-11T00:18:21.019Z,11.5
2022-10-11T00:19:22.019Z,11.6
2022-10-11T00:20:23.018Z,11.6
2022-10-11T00:21:24.139Z,11.6
2022-10-11T00:22:25.120Z,11.7
2022-10-11T00:23:26.047Z,11.7
2022-10-11T00:24:27.080Z,11.6
2022-10-11T00:25:27.999Z,11.6
2022-10-11T00:26:28.999Z,11.5
2022-10-11T00:27:30.060Z,11.4
2022-10-11T00:28:31.136Z,11.4
2022-10-11T00:29:32.044Z,11.5
2022-10-11T00:30:33.021Z,11.4
2022-10-11T00:31:35.748Z,11.4
2022-10-11T00:32:35.099Z,11.4
2022-10-11T00:33:36.099Z,11.3
2022-10-11T00:34:37.127Z,11.4
2022-10-11T00:35:39.038Z,11.4
2022-10-11T00:36:40.080Z,11.4
2022-10-11T00:37:41.099Z,11.5
2022-10-11T00:38:42.977Z,11.5
2022-10-11T00:39:45.099Z,11.5
2022-10-11T00:40:47.062Z,11.6
2022-10-11T00:41:48.060Z,11.6
2022-10-11T00:42:49.078Z,11.7
2022-10-11T00:43:50.118Z,11.8
2022-10-11T00:44:51.078Z,11.8
2022-10-11T00:45:52.090Z,11.9
2022-10-11T00:46:55.820Z,11.9
2022-10-11T00:47:54.078Z,12
2022-10-11T00:48:55.041Z,12
2022-10-11T00:49:56.098Z,12
2022-10-11T00:50:57.079Z,12.1
2022-10-11T00:51:58.079Z,12
2022-10-11T00:52:59.021Z,12
2022-10-11T00:54:00.119Z,12
2022-10-11T00:55:01.279Z,12
2022-10-11T00:56:03.524Z,12
2022-10-11T00:57:04.126Z,12
2022-10-11T00:58:05.159Z,11.9
2022-10-11T00:59:07.079Z,11.9
2022-10-11T01:00:09.123Z,11.9
2022-10-11T01:01:10.130Z,11.9
2022-10-11T01:02:12.170Z,11.8
2022-10-11T01:03:14.038Z,11.7
2022-10-11T01:04:16.079Z,11.7
2022-10-11T01:05:28.997Z,11.6
2022-10-11T01:06:20.078Z,11.5
2022-10-11T01:07:22.158Z,11.5
2022-10-11T01:08:24.079Z,11.5
2022-10-11T01:09:26.119Z,11.4
2022-10-11T01:10:27.187Z,11.3
2022-10-11T01:11:28.081Z,11.4
2022-10-11T01:12:29.080Z,11.3
2022-10-11T01:13:30.038Z,11.3
2022-10-11T01:14:31.118Z,11.3
2022-10-11T01:15:32.110Z,11.3
2022-10-11T01:16:33.079Z,11.3
2022-10-11T01:17:34.122Z,11.2
2022-10-11T01:18:35.079Z,11.2
2022-10-11T01:19:36.081Z,11.2
2022-10-11T01:20:37.104Z,11.1
2022-10-11T01:21:38.139Z,11.1
2022-10-11T01:22:40.063Z,11
2022-10-11T01:23:41.099Z,11
2022-10-11T01:24:42.099Z,11
2022-10-11T01:25:43.159Z,10.8
2022-10-11T01:26:45.099Z,10.7
2022-10-11T01:27:47.039Z,10.7
2022-10-11T01:28:48.134Z,10.6
2022-10-11T01:29:49.040Z,10.6
2022-10-11T01:30:50.119Z,10.7
2022-10-11T01:31:51.099Z,10.7
2022-10-11T01:32:52.105Z,10.7
2022-10-11T01:33:53.044Z,10.7
2022-10-11T01:34:54.038Z,10.8
2022-10-11T01:35:55.098Z,10.8
2022-10-11T01:36:56.099Z,10.8
2022-10-11T01:37:57.099Z,10.9
2022-10-11T01:38:58.157Z,10.9
2022-10-11T01:40:00.091Z,11
2022-10-11T01:41:02.124Z,11.1
2022-10-11T01:42:03.139Z,11.1
2022-10-11T01:43:04.118Z,11.1
2022-10-11T01:44:06.139Z,11.2
2022-10-11T01:45:08.127Z,11.2
2022-10-11T01:46:10.079Z,11.2
2022-10-11T01:47:12.099Z,11.2
2022-10-11T01:48:14.090Z,11.2
2022-10-11T01:49:16.361Z,11.2
2022-10-11T01:50:18.099Z,11.2
2022-10-11T01:51:20.100Z,11.2
2022-10-11T01:52:21.119Z,11.2
2022-10-11T01:53:22.120Z,11.2
2022-10-11T01:54:23.181Z,11.1
2022-10-11T01:55:24.199Z,11.2
2022-10-11T01:56:26.104Z,11.1
2022-10-11T01:57:27.119Z,11.1
2022-10-11T01:58:28.045Z,11
2022-10-11T01:59:30.158Z,11.1
2022-10-11T02:03:51.078Z,11
2022-10-11T02:04:52.101Z,11
2022-10-11T02:05:54.140Z,11
2022-10-11T02:06:55.117Z,11
2022-10-11T02:07:56.095Z,11
2022-10-11T02:08:57.099Z,11
2022-10-11T02:09:59.138Z,11
2022-10-11T02:11:01.122Z,11
2022-10-11T02:12:02.152Z,10.9
2022-10-11T02:13:04.096Z,10.9
2022-10-11T02:14:05.135Z,10.8
2022-10-11T02:15:07.196Z,10.8
2022-10-11T02:16:08.683Z,10.8
2022-10-11T02:17:09.115Z,10.7
2022-10-11T02:18:10.103Z,10.6
2022-10-11T02:19:11.120Z,10.6
2022-10-11T02:20:12.174Z,10.5
2022-10-11T02:21:13.094Z,10.6
2022-10-11T02:22:14.095Z,10.5
2022-10-11T02:23:15.614Z,10.5
2022-10-11T02:24:17.096Z,10.5
2022-10-11T02:25:18.216Z,10.5
2022-10-11T02:26:19.049Z,10.4
2022-10-11T02:27:20.075Z,10.3
2022-10-11T02:28:21.219Z,10.3
2022-10-11T02:29:22.036Z,10.3
2022-10-11T02:30:23.175Z,10.2
2022-10-11T02:31:25.126Z,10.2
2022-10-11T02:32:27.126Z,10.2
2022-10-11T02:33:28.063Z,10.1
2022-10-11T02:34:30.138Z,10.1
2022-10-11T02:35:32.115Z,10.1
2022-10-11T02:36:34.137Z,10.1
2022-10-11T02:37:35.115Z,10.1
2022-10-11T02:38:36.106Z,10.1
2022-10-11T02:39:37.135Z,10.1
2022-10-11T02:40:38.114Z,10.1
2022-10-11T02:41:39.136Z,10.1
2022-10-11T02:42:40.115Z,10.2
2022-10-11T02:43:41.114Z,10.2
2022-10-11T02:44:42.136Z,10.2
2022-10-11T02:45:43.215Z,10.2
2022-10-11T02:46:44.116Z,10.1
2022-10-11T02:47:45.118Z,10.2
2022-10-11T02:48:46.156Z,10.2
2022-10-11T02:49:47.141Z,10.2
2022-10-11T02:50:48.137Z,10.3
2022-10-11T02:51:49.135Z,10.3
2022-10-11T02:52:51.133Z,10.3
2022-10-11T02:53:52.202Z,10.3
2022-10-11T02:54:54.116Z,10.3
2022-10-11T02:55:56.240Z,10.3
2022-10-11T02:56:57.019Z,10.4
2022-10-11T02:57:58.175Z,10.4
2022-10-11T02:59:00.091Z,10.4
2022-10-11T03:00:02.214Z,10.5
2022-10-11T03:01:04.135Z,10.5
2022-10-11T03:02:06.203Z,10.5
2022-10-11T03:03:08.174Z,10.5
2022-10-11T03:04:09.174Z,10.6
2022-10-11T03:05:10.158Z,10.6
2022-10-11T03:06:11.114Z,10.6
2022-10-11T03:07:12.134Z,10.6
2022-10-11T03:08:13.118Z,10.7
2022-10-11T03:09:14.082Z,10.7
2022-10-11T03:10:15.114Z,10.7
2022-10-11T03:11:16.115Z,10.7
2022-10-11T03:12:17.116Z,10.7
2022-10-11T03:13:18.636Z,10.7
2022-10-11T03:14:19.095Z,10.7
2022-10-11T03:15:20.096Z,10.7
2022-10-11T03:16:21.174Z,10.7
2022-10-11T03:17:35.960Z,10.7
2022-10-11T03:18:24.102Z,10.7
2022-10-11T03:19:25.115Z,10.7
2022-10-11T03:20:26.138Z,10.7
2022-10-11T03:21:27.175Z,10.7
2022-10-11T03:22:28.115Z,10.7
2022-10-11T03:23:30.135Z,10.7
2022-10-11T03:24:32.135Z,10.7
2022-10-11T03:25:33.134Z,10.7
2022-10-11T03:26:34.175Z,10.7
2022-10-11T03:27:35.074Z,10.6
2022-10-11T03:28:36.174Z,10.6
2022-10-11T03:29:37.156Z,10.6
2022-10-11T03:30:38.237Z,10.6
2022-10-11T03:31:39.220Z,10.6
2022-10-11T03:32:40.143Z,10.6
2022-10-11T03:33:41.154Z,10.6
2022-10-11T03:34:42.122Z,10.6
2022-10-11T03:35:44.227Z,10.6
2022-10-11T03:36:46.175Z,10.6
2022-10-11T03:37:48.114Z,10.6
2022-10-11T03:38:50.175Z,10.6
2022-10-11T03:39:52.134Z,10.7
2022-10-11T03:40:54.139Z,10.7
2022-10-11T03:41:55.157Z,10.7
2022-10-11T03:42:56.097Z,10.6
2022-10-11T03:43:58.065Z,10.7
2022-10-11T03:44:59.175Z,10.6
2022-10-11T03:46:01.385Z,10.5
2022-10-11T03:47:03.196Z,10.6
2022-10-11T03:48:05.174Z,10.5
2022-10-11T03:49:06.194Z,10.6
2022-10-11T03:50:07.223Z,10.6
2022-10-11T03:51:08.238Z,10.6
2022-10-11T03:52:09.185Z,10.6
2022-10-11T03:53:10.174Z,10.6
2022-10-11T03:54:11.202Z,10.6
2022-10-11T03:55:12.194Z,10.6
2022-10-11T03:56:13.461Z,10.6
2022-10-11T03:57:14.156Z,10.7
2022-10-11T03:58:15.157Z,10.6
2022-10-11T03:59:16.375Z,10.5
2022-10-11T04:00:18.176Z,10.5
2022-10-11T04:01:20.293Z,10.5
2022-10-11T04:02:22.148Z,10.5
2022-10-11T04:03:23.214Z,10.6
2022-10-11T04:04:25.183Z,10.6
2022-10-11T04:05:27.161Z,10.6
2022-10-11T04:06:29.201Z,10.6
2022-10-11T04:07:31.214Z,10.7
2022-10-11T04:08:33.122Z,10.8
2022-10-11T04:09:34.135Z,10.8
2022-10-11T04:10:35.144Z,10.8
2022-10-11T04:11:36.175Z,10.8
2022-10-11T04:12:38.214Z,10.9
2022-10-11T04:13:39.183Z,10.9
2022-10-11T04:14:40.195Z,10.9
2022-10-11T04:15:41.197Z,10.9
2022-10-11T04:16:42.165Z,11
2022-10-11T04:17:43.174Z,10.9
2022-10-11T04:18:44.135Z,10.9
2022-10-11T04:19:45.196Z,10.9
2022-10-11T04:20:46.175Z,10.9
2022-10-11T04:21:47.183Z,10.9
2022-10-11T04:22:48.156Z,10.9
2022-10-11T04:23:49.175Z,10.9
2022-10-11T04:24:50.214Z,10.9
2022-10-11T04:25:51.194Z,11
2022-10-11T04:26:52.219Z,10.9
2022-10-11T04:27:53.236Z,10.9
2022-10-11T04:28:54.246Z,10.9
2022-10-11T04:29:56.223Z,10.9
2022-10-11T04:30:58.176Z,10.9
2022-10-11T04:32:00.231Z,10.8
2022-10-11T04:33:01.258Z,10.8
2022-10-11T04:34:02.204Z,10.8
2022-10-11T04:35:04.695Z,10.7
2022-10-11T04:36:04.555Z,10.7
2022-10-11T04:37:05.261Z,10.6
2022-10-11T04:38:07.255Z,10.6
2022-10-11T04:39:08.196Z,10.6
2022-10-11T04:40:09.214Z,10.6
2022-10-11T04:41:10.234Z,10.7
2022-10-11T04:42:11.215Z,10.7
2022-10-11T04:43:12.235Z,10.7
2022-10-11T04:44:13.154Z,10.8
2022-10-11T04:45:14.196Z,10.9
2022-10-11T04:46:15.165Z,10.9
2022-10-11T04:47:16.434Z,10.9
2022-10-11T04:48:18.255Z,10.9
2022-10-11T04:49:19.195Z,10.8
2022-10-11T04:50:20.166Z,10.9
2022-10-11T04:51:21.216Z,10.9
2022-10-11T04:52:25.657Z,10.9
2022-10-11T04:53:23.227Z,10.9
2022-10-11T04:54:24.178Z,10.9
2022-10-11T04:55:25.255Z,11
2022-10-11T04:56:26.157Z,11
2022-10-11T04:57:27.194Z,11
2022-10-11T04:58:28.175Z,11
2022-10-11T04:59:29.160Z,11
2022-10-11T05:00:31.278Z,11
2022-10-11T05:01:33.264Z,11
2022-10-11T05:02:35.182Z,11
2022-10-11T05:03:36.454Z,11.1
2022-10-11T05:04:38.237Z,11.1
2022-10-11T05:05:40.135Z,11.1
2022-10-11T05:06:41.197Z,11.1
2022-10-11T05:07:42.245Z,11.1
2022-10-11T05:08:43.205Z,11.1
2022-10-11T05:09:44.138Z,11.1
2022-10-11T05:10:46.195Z,11.1
2022-10-11T05:11:48.203Z,11.1
2022-10-11T05:12:49.198Z,11.1
2022-10-11T05:13:50.236Z,11.1
2022-10-11T05:14:51.235Z,11
2022-10-11T05:15:52.218Z,11
2022-10-11T05:16:53.215Z,11.1
2022-10-11T05:17:54.176Z,11.1
2022-10-11T05:18:56.194Z,11.1
2022-10-11T05:19:58.174Z,11.2
2022-10-11T05:21:00.199Z,11.2
2022-10-11T05:22:01.276Z,11.2
2022-10-11T05:23:02.259Z,11.2
2022-10-11T05:24:03.235Z,11.2
2022-10-11T05:25:04.275Z,11.2
2022-10-11T05:26:05.535Z,11.2
2022-10-11T05:27:06.227Z,11.2
2022-10-11T05:28:07.297Z,11.2
2022-10-11T05:29:08.324Z,11.2
2022-10-11T05:30:10.274Z,11.2
2022-10-11T05:31:11.275Z,11.3
2022-10-11T05:32:13.204Z,11.3
2022-10-11T05:33:15.282Z,11.4
2022-10-11T05:34:17.239Z,11.4
2022-10-11T05:35:18.223Z,11.4
2022-10-11T05:36:19.195Z,11.4
2022-10-11T05:37:20.255Z,11.4
2022-10-11T05:38:21.279Z,11.5
2022-10-11T05:39:22.156Z,11.5
2022-10-11T05:40:24.214Z,11.5
2022-10-11T05:41:25.195Z,11.5
2022-10-11T05:42:26.254Z,11.5
2022-10-11T05:43:27.235Z,11.5
2022-10-11T05:44:28.243Z,11.5
2022-10-11T05:45:29.179Z,11.5
2022-10-11T05:46:30.235Z,11.5
2022-10-11T05:47:31.214Z,11.4
2022-10-11T05:48:32.214Z,11.4
2022-10-11T05:49:33.204Z,11.4
2022-10-11T05:50:34.235Z,11.4
2022-10-11T05:51:36.243Z,11.4
2022-10-11T05:52:37.223Z,11.4
2022-10-11T05:53:38.259Z,11.4
2022-10-11T05:54:40.185Z,11.4
2022-10-11T05:55:41.237Z,11.5
2022-10-11T05:56:42.255Z,11.5
2022-10-11T05:57:43.214Z,11.5
2022-10-11T05:58:45.235Z,11.6
2022-10-11T05:59:47.254Z,11.6
2022-10-11T06:00:48.223Z,11.6
2022-10-11T06:01:49.210Z,11.6
2022-10-11T06:02:50.255Z,11.6
2022-10-11T06:03:51.215Z,11.7
2022-10-11T06:04:52.256Z,11.6
2022-10-11T06:05:56.628Z,11.6
2022-10-11T06:06:54.255Z,11.5
2022-10-11T06:07:55.236Z,11.3
2022-10-11T06:08:56.278Z,11.3
2022-10-11T06:09:57.221Z,11.1
2022-10-11T06:10:58.184Z,11.1
2022-10-11T06:11:59.235Z,11.1
2022-10-11T06:13:00.280Z,11.2
2022-10-11T06:14:01.338Z,11.3
2022-10-11T06:15:03.275Z,11.4
2022-10-11T06:16:04.423Z,11.5
2022-10-11T06:17:05.235Z,11.6
2022-10-11T06:18:06.277Z,11.6
2022-10-11T06:19:07.255Z,11.7
2022-10-11T06:20:08.258Z,11.7
2022-10-11T06:21:09.195Z,11.8
2022-10-11T06:22:10.235Z,11.8
2022-10-11T06:23:11.255Z,11.9
2022-10-11T06:24:12.299Z,11.9
2022-10-11T06:25:13.235Z,11.9
2022-10-11T06:26:14.255Z,11.8
2022-10-11T06:27:16.294Z,11.8
2022-10-11T06:28:18.288Z,11.8
2022-10-11T06:29:19.294Z,11.8
2022-10-11T06:30:20.255Z,11.8
2022-10-11T06:31:21.274Z,11.8
2022-10-11T06:32:22.296Z,11.7
2022-10-11T06:33:23.296Z,11.6
2022-10-11T06:34:24.295Z,11.4
2022-10-11T06:35:25.275Z,11.3
2022-10-11T06:36:26.251Z,11.2
2022-10-11T06:37:27.283Z,11.1
2022-10-11T06:38:28.211Z,11.1
2022-10-11T06:39:29.288Z,11.1
2022-10-11T06:40:30.276Z,11.2
2022-10-11T06:41:32.294Z,11.2
2022-10-11T06:42:33.183Z,11.3
2022-10-11T06:43:34.234Z,11.4
2022-10-11T06:44:35.256Z,11.5
2022-10-11T06:45:36.275Z,11.6
2022-10-11T06:46:37.276Z,11.7
2022-10-11T06:47:38.274Z,11.7
2022-10-11T06:48:39.243Z,11.8
2022-10-11T06:49:40.275Z,11.9
2022-10-11T06:50:58.883Z,11.9
2022-10-11T06:51:42.315Z,12
2022-10-11T06:52:43.251Z,12.1
2022-10-11T06:53:44.255Z,12.3
2022-10-11T06:54:45.320Z,12.3
2022-10-11T06:55:47.219Z,12.3
2022-10-11T06:56:48.255Z,12.3
2022-10-11T06:57:49.274Z,12.4
2022-10-11T06:58:50.275Z,12.5
2022-10-11T06:59:51.341Z,12.6
2022-10-11T07:00:52.307Z,12.6
2022-10-11T07:01:53.224Z,12.6
2022-10-11T07:02:54.274Z,12.7
2022-10-11T07:03:55.275Z,12.6
2022-10-11T07:04:56.276Z,12.6
2022-10-11T07:06:01.520Z,12.5
2022-10-11T07:06:58.315Z,12.5
2022-10-11T07:08:00.250Z,12.4
2022-10-11T07:09:02.278Z,12.4
2022-10-11T07:10:03.378Z,12.4
2022-10-11T07:11:05.299Z,12.4
2022-10-11T07:12:06.255Z,12.5
2022-10-11T07:13:07.237Z,12.5
2022-10-11T07:14:08.255Z,12.5
2022-10-11T07:15:09.355Z,12.5
2022-10-11T07:16:11.395Z,12.6
2022-10-11T07:17:13.255Z,12.7
2022-10-11T07:18:14.289Z,12.9
2022-10-11T07:19:15.295Z,12.9
2022-10-11T07:20:17.395Z,13
2022-10-11T07:21:19.295Z,12.9
2022-10-11T07:22:20.315Z,13
2022-10-11T07:23:21.314Z,13
2022-10-11T07:24:22.296Z,13.1
2022-10-11T07:25:23.306Z,13.1
2022-10-11T07:26:24.363Z,13.2
2022-10-11T07:27:26.275Z,13.1
2022-10-11T07:28:27.434Z,13.1
2022-10-11T07:29:29.276Z,13
2022-10-11T07:30:30.275Z,13
2022-10-11T07:31:31.339Z,12.8
2022-10-11T07:32:32.278Z,12.6
2022-10-11T07:33:33.275Z,12.6
2022-10-11T07:34:34.296Z,12.6
2022-10-11T07:35:35.336Z,12.5
2022-10-11T07:36:36.275Z,12.6
2022-10-11T07:37:37.276Z,12.7
2022-10-11T07:38:38.296Z,12.7
2022-10-11T07:39:39.356Z,12.8
2022-10-11T07:40:40.389Z,13
2022-10-11T07:41:45.785Z,12.9
2022-10-11T07:42:44.500Z,13
2022-10-11T07:43:46.455Z,12.9
2022-10-11T07:44:49.565Z,12.9
2022-10-11T07:45:51.670Z,12.9
2022-10-11T07:46:53.416Z,12.9
2022-10-11T07:47:55.375Z,13
2022-10-11T07:48:57.363Z,13
2022-10-11T07:49:59.823Z,13
2022-10-11T07:51:02.395Z,13
2022-10-11T07:52:04.382Z,13
2022-10-11T07:53:06.334Z,13
2022-10-11T07:54:08.321Z,12.9
2022-10-11T07:55:10.293Z,12.9
2022-10-11T07:56:12.422Z,12.8
2022-10-11T07:57:14.382Z,12.8
2022-10-11T07:58:15.292Z,12.8
2022-10-11T07:59:16.296Z,12.7
2022-10-11T08:00:17.335Z,12.6
2022-10-11T08:01:18.356Z,12.7
2022-10-11T08:02:19.295Z,12.8
2022-10-11T08:03:20.314Z,12.9
2022-10-11T08:04:21.315Z,12.8
2022-10-11T08:05:22.415Z,12.8
2022-10-11T08:06:24.292Z,12.7
2022-10-11T08:07:25.334Z,12.7
2022-10-11T08:08:26.616Z,12.7
2022-10-11T08:09:28.343Z,12.6
2022-10-11T08:10:29.314Z,12.5
2022-10-11T08:11:30.470Z,12.4
2022-10-11T08:12:32.362Z,12.5
2022-10-11T08:13:34.354Z,12.5
2022-10-11T08:14:35.355Z,12.6
2022-10-11T08:15:36.318Z,12.7
2022-10-11T08:16:37.364Z,12.9
2022-10-11T08:17:39.364Z,12.9
2022-10-11T08:18:41.355Z,13
2022-10-11T08:19:42.324Z,13.1
2022-10-11T08:20:44.388Z,13.1
2022-10-11T08:21:46.334Z,13.2
2022-10-11T08:22:48.334Z,13.3
2022-10-11T08:23:49.295Z,13.3
2022-10-11T08:24:50.354Z,13.4
2022-10-11T08:25:51.320Z,13.3
2022-10-11T08:26:52.298Z,13.3
2022-10-11T08:27:53.302Z,13.3
2022-10-11T08:28:54.340Z,13.4
2022-10-11T08:29:55.382Z,13.6
2022-10-11T08:30:56.335Z,13.7
2022-10-11T08:31:57.257Z,13.7
2022-10-11T08:32:58.303Z,13.8
2022-10-11T08:33:59.294Z,13.8
2022-10-11T08:35:00.344Z,13.9
2022-10-11T08:36:02.646Z,14
2022-10-11T08:37:03.300Z,14
2022-10-11T08:38:04.383Z,14
2022-10-11T08:39:05.354Z,14
2022-10-11T08:40:06.396Z,13.9
2022-10-11T08:41:08.338Z,13.7
2022-10-11T08:42:10.463Z,13.7
2022-10-11T08:43:12.323Z,13.8
2022-10-11T08:44:14.435Z,13.8
2022-10-11T08:45:16.315Z,13.9
2022-10-11T08:46:17.295Z,13.9
2022-10-11T08:47:18.296Z,14.1
2022-10-11T08:48:19.375Z,14.1
2022-10-11T08:49:20.635Z,14.1
2022-10-11T08:50:22.393Z,14.2
2022-10-11T08:51:23.335Z,14.3
2022-10-11T08:52:24.378Z,14.4
2022-10-11T08:53:25.375Z,14.5
2022-10-11T08:54:26.335Z,14.6
2022-10-11T08:55:27.375Z,14.7
2022-10-11T08:56:28.334Z,14.7
2022-10-11T08:57:29.517Z,14.8
2022-10-11T08:58:31.415Z,14.8
2022-10-11T08:59:33.415Z,15
2022-10-11T09:00:34.355Z,15.1
2022-10-11T09:01:35.374Z,15.2
2022-10-11T09:02:56.045Z,15.3
2022-10-11T09:03:38.434Z,15.4
2022-10-11T09:04:40.368Z,15.4
2022-10-11T09:05:41.334Z,15.5
2022-10-11T09:06:42.396Z,15.6
2022-10-11T09:07:44.354Z,15.6
2022-10-11T09:08:46.476Z,15.6
2022-10-11T09:09:48.394Z,15.7
2022-10-11T09:10:49.377Z,15.7
2022-10-11T09:11:50.402Z,15.7
2022-10-11T09:12:52.407Z,15.7
2022-10-11T09:13:53.397Z,15.6
2022-10-11T09:14:54.356Z,15.5
2022-10-11T09:15:55.315Z,15.5
2022-10-11T09:16:56.362Z,15.5
2022-10-11T09:17:57.402Z,15.5
2022-10-11T09:18:58.381Z,15.5
2022-10-11T09:20:00.366Z,15.3
2022-10-11T09:21:02.377Z,15.2
2022-10-11T09:22:04.314Z,15.1
2022-10-11T09:23:06.322Z,14.9
2022-10-11T09:24:07.394Z,14.9
2022-10-11T09:25:08.322Z,14.9
2022-10-11T09:26:09.580Z,14.9
2022-10-11T09:27:10.336Z,14.7
2022-10-11T09:28:11.466Z,14.7
2022-10-11T09:29:12.375Z,14.9
2022-10-11T09:30:13.416Z,15
2022-10-11T09:31:14.374Z,15.1
2022-10-11T09:32:15.440Z,15.1
2022-10-11T09:33:16.434Z,15.1
2022-10-11T09:34:17.323Z,15.1
2022-10-11T09:35:18.315Z,15.3
2022-10-11T09:36:19.297Z,15.4
2022-10-11T09:37:20.335Z,15.5
2022-10-11T09:38:22.374Z,15.4
2022-10-11T09:39:23.383Z,15.5
2022-10-11T09:40:25.443Z,15.4
2022-10-11T09:41:27.456Z,15.4
2022-10-11T09:42:29.378Z,15.5
2022-10-11T09:43:30.364Z,15.6
2022-10-11T09:44:31.334Z,15.7
2022-10-11T09:45:32.396Z,15.8
2022-10-11T09:46:33.375Z,15.7
2022-10-11T09:47:34.337Z,15.7
2022-10-11T09:48:35.414Z,15.6
2022-10-11T09:49:37.355Z,15.5
2022-10-11T09:50:38.354Z,15.4
2022-10-11T09:51:39.357Z,15.2
2022-10-11T09:52:40.403Z,15.1
2022-10-11T09:53:42.664Z,14.9
2022-10-11T09:54:44.435Z,14.9
2022-10-11T09:55:46.334Z,14.9
2022-10-11T09:56:48.356Z,14.8
2022-10-11T09:57:49.335Z,14.8
2022-10-11T09:58:50.418Z,14.7
2022-10-11T09:59:51.354Z,14.5
2022-10-11T10:00:52.456Z,14.6
2022-10-11T10:01:53.500Z,14.6
2022-10-11T10:02:54.376Z,14.5
2022-10-11T10:03:55.375Z,14.6
2022-10-11T10:04:56.394Z,14.6
2022-10-11T10:05:57.424Z,14.5
2022-10-11T10:06:58.437Z,14.5
2022-10-11T10:08:02.950Z,14.6
2022-10-11T10:09:00.347Z,14.7
2022-10-11T10:10:01.437Z,14.9
2022-10-11T10:11:03.335Z,15
2022-10-11T10:12:04.437Z,15.2
2022-10-11T10:13:05.395Z,15.2
2022-10-11T10:14:06.439Z,15.1
2022-10-11T10:15:07.414Z,14.9
2022-10-11T10:16:08.756Z,14.8
2022-10-11T10:17:10.354Z,14.6
2022-10-11T10:18:11.338Z,14.5
2022-10-11T10:19:13.434Z,14.5
2022-10-11T10:20:15.406Z,14.6
2022-10-11T10:21:17.369Z,14.5
2022-10-11T10:22:19.388Z,14.6
2022-10-11T10:23:21.375Z,14.5
2022-10-11T10:24:23.414Z,14.5
2022-10-11T10:25:25.435Z,14.5
2022-10-11T10:26:26.422Z,14.4
2022-10-11T10:27:27.396Z,14.4
2022-10-11T10:28:28.448Z,14.4
2022-10-11T10:29:29.359Z,14.4
2022-10-11T10:30:34.604Z,14.4
2022-10-11T10:31:40.247Z,14.5
2022-10-11T10:32:34.371Z,14.5
2022-10-11T10:33:35.440Z,14.6
2022-10-11T10:34:36.419Z,14.8
2022-10-11T10:35:38.493Z,14.9
2022-10-11T10:36:40.435Z,14.9
2022-10-11T10:37:41.355Z,14.9
2022-10-11T10:38:42.362Z,15
2022-10-11T10:39:43.375Z,15
2022-10-11T10:40:44.422Z,15
2022-10-11T10:41:45.398Z,15
2022-10-11T10:42:46.491Z,15
2022-10-11T10:43:47.376Z,15.1
2022-10-11T10:44:48.427Z,15.2
2022-10-11T10:45:49.396Z,15.2
2022-10-11T10:46:50.418Z,15.3
2022-10-11T10:47:51.397Z,15.2
2022-10-11T10:49:55.063Z,15.2
2022-10-11T10:50:55.383Z,15.2
2022-10-11T10:51:56.423Z,15.2
2022-10-11T10:52:57.394Z,15.1
2022-10-11T10:53:58.420Z,15.1
2022-10-11T10:55:00.456Z,15.1
2022-10-11T10:56:02.790Z,15
2022-10-11T10:57:04.454Z,15
2022-10-11T10:58:06.416Z,15
2022-10-11T10:59:07.483Z,14.8
2022-10-11T11:00:08.548Z,14.7
2022-10-11T11:01:10.395Z,14.7
2022-10-11T11:02:35.301Z,14.9
2022-10-11T11:03:13.434Z,15
2022-10-11T11:04:14.415Z,15.1
2022-10-11T11:05:15.454Z,15.1
2022-10-11T11:06:16.395Z,15.1
2022-10-11T11:07:18.683Z,15.2
2022-10-11T11:08:20.415Z,15.1
2022-10-11T11:09:22.420Z,15
2022-10-11T11:10:23.475Z,15
2022-10-11T11:11:24.443Z,15
2022-10-11T11:12:25.387Z,15.1
2022-10-11T11:13:26.444Z,15.1
2022-10-11T11:14:27.382Z,15.1
2022-10-11T11:15:32.468Z,15.3
2022-10-11T11:16:30.443Z,15.4
2022-10-11T11:17:31.394Z,15.5
2022-10-11T11:18:33.428Z,15.6
2022-10-11T11:19:35.456Z,15.6
2022-10-11T11:20:36.397Z,15.8
2022-10-11T11:21:41.316Z,16
2022-10-11T11:22:38.335Z,16.2
2022-10-11T11:23:39.383Z,16.2
2022-10-11T11:24:40.411Z,16.1
2022-10-11T11:25:44.797Z,16.1
2022-10-11T11:26:44.370Z,16.1
2022-10-11T11:27:43.352Z,16
2022-10-11T11:28:44.480Z,16
2022-10-11T11:29:45.382Z,16
2022-10-11T11:30:47.479Z,16.1
2022-10-11T11:31:49.395Z,16.1
2022-10-11T11:32:50.495Z,16.2
2022-10-11T11:33:51.412Z,16.3
2022-10-11T11:34:52.394Z,16.4
2022-10-11T11:35:53.428Z,16.5
2022-10-11T11:36:54.444Z,16.6
2022-10-11T11:38:00.287Z,16.7
2022-10-11T11:38:56.982Z,16.7
2022-10-11T11:39:58.457Z,16.7
2022-10-11T11:40:59.436Z,16.7
2022-10-11T11:42:00.462Z,16.7
2022-10-11T11:43:01.495Z,16.8
2022-10-11T11:44:02.495Z,16.7
2022-10-11T11:45:03.455Z,16.7
2022-10-11T11:46:04.401Z,16.7
2022-10-11T11:47:05.423Z,16.5
2022-10-11T11:48:06.411Z,16.5
2022-10-11T11:49:10.844Z,16.4
2022-10-11T11:50:09.438Z,16.5
2022-10-11T11:51:10.477Z,16.6
2022-10-11T11:52:11.457Z,16.5
2022-10-11T11:53:12.485Z,16.2
2022-10-11T11:54:14.474Z,16.1
2022-10-11T11:55:15.476Z,16
2022-10-11T11:56:16.415Z,15.9
2022-10-11T11:57:17.894Z,16
2022-10-11T11:58:19.422Z,16.3
2022-10-11T11:59:20.495Z,16.5
2022-10-11T12:00:21.483Z,16.7
2022-10-11T12:01:22.520Z,17
2022-10-11T12:02:24.639Z,17.1
2022-10-11T12:03:26.388Z,17.1
2022-10-11T12:04:27.390Z,17
2022-10-11T12:05:28.444Z,16.9
2022-10-11T12:06:29.469Z,16.7
2022-10-11T12:07:30.439Z,16.4
2022-10-11T12:08:31.374Z,16.1
2022-10-11T12:09:32.423Z,16
2022-10-11T12:10:33.470Z,16
2022-10-11T12:11:35.615Z,16
2022-10-11T12:12:36.377Z,16
2022-10-11T12:13:37.424Z,16
2022-10-11T12:14:38.423Z,16.1
2022-10-11T12:15:39.454Z,16.1
2022-10-11T12:16:42.960Z,16.2
2022-10-11T12:17:44.505Z,16.2
2022-10-11T12:18:45.473Z,16.3
2022-10-11T12:19:46.438Z,16.3
2022-10-11T12:20:48.434Z,16.4
2022-10-11T12:21:49.475Z,16.4
2022-10-11T12:22:50.455Z,16.3
2022-10-11T12:23:51.415Z,16.3
2022-10-11T12:24:52.435Z,16.1
2022-10-11T12:25:53.455Z,16.2
2022-10-11T12:26:54.418Z,16.3
2022-10-11T12:27:55.535Z,16.4
2022-10-11T12:28:56.496Z,16.4
2022-10-11T12:29:57.415Z,16.5
2022-10-11T12:30:58.475Z,16.3
2022-10-11T12:31:59.478Z,16.3
2022-10-11T12:33:00.435Z,16.4
2022-10-11T12:34:01.479Z,16.6
2022-10-11T12:35:02.454Z,16.8
2022-10-11T12:36:05.526Z,17
2022-10-11T12:37:06.615Z,16.9
2022-10-11T12:38:05.516Z,16.8
2022-10-11T12:39:06.494Z,16.6
2022-10-11T12:40:07.496Z,16.5
2022-10-11T12:41:08.506Z,16.5
2022-10-11T12:42:09.455Z,16.5
2022-10-11T12:43:10.495Z,16.6
2022-10-11T12:44:11.436Z,16.6
2022-10-11T12:45:12.534Z,16.7
2022-10-11T12:46:14.495Z,16.8
2022-10-11T12:47:15.580Z,16.9
2022-10-11T12:48:17.455Z,17
2022-10-11T12:49:19.475Z,17
2022-10-11T12:50:20.556Z,17.2
2022-10-11T12:51:22.516Z,17.4
2022-10-11T12:52:24.534Z,17.3
2022-10-11T12:53:25.475Z,17.4
2022-10-11T12:54:28.958Z,17.4
2022-10-11T12:55:27.451Z,17.5
2022-10-11T12:56:28.419Z,17.5
2022-10-11T12:57:29.483Z,17.4
2022-10-11T12:58:30.474Z,17.4
2022-10-11T12:59:31.478Z,17.3
2022-10-11T13:00:32.438Z,17.3
2022-10-11T13:01:33.568Z,17.4
2022-10-11T13:02:34.583Z,17.5
2022-10-11T13:03:36.479Z,17.6
2022-10-11T13:04:37.476Z,17.7
2022-10-11T13:05:41.969Z,17.7
2022-10-11T13:06:39.477Z,17.8
2022-10-11T13:07:40.535Z,17.8
2022-10-11T13:08:41.455Z,17.8
2022-10-11T13:09:46.698Z,17.8
2022-10-11T13:10:43.478Z,17.7
2022-10-11T13:11:45.474Z,17.8
2022-10-11T13:12:47.523Z,17.7
2022-10-11T13:13:49.410Z,17.7
2022-10-11T13:14:50.557Z,17.8
2022-10-11T13:15:51.491Z,18
2022-10-11T13:16:52.507Z,18.1
2022-10-11T13:17:53.527Z,18.2
2022-10-11T13:18:54.516Z,18.3
2022-10-11T13:19:55.555Z,18.2
2022-10-11T13:20:56.662Z,17.6
2022-10-11T13:21:58.467Z,17.3
2022-10-11T13:22:59.555Z,17
2022-10-11T13:24:01.475Z,16.9
2022-10-11T13:25:03.543Z,16.8
2022-10-11T13:26:05.877Z,16.9
2022-10-11T13:27:07.465Z,16.9
2022-10-11T13:28:09.531Z,16.9
2022-10-11T13:29:10.532Z,16.8
2022-10-11T13:30:11.556Z,16.6
2022-10-11T13:31:13.557Z,16.4
2022-10-11T13:32:15.475Z,16.3
2022-10-11T13:33:17.477Z,16.4
2022-10-11T13:34:23.134Z,16.6
2022-10-11T13:35:22.463Z,16.8
2022-10-11T13:36:23.574Z,16.9
2022-10-11T13:37:25.496Z,17
2022-10-11T13:38:27.497Z,17.2
2022-10-11T13:39:30.868Z,17.3
2022-10-11T13:40:29.519Z,17.4
2022-10-11T13:41:30.515Z,17.6
2022-10-11T13:42:31.455Z,17.7
2022-10-11T13:43:32.538Z,17.7
2022-10-11T13:44:34.531Z,17.9
2022-10-11T13:45:36.476Z,17.9
2022-10-11T13:46:37.579Z,18